Time;durP1;ratioP1;P1;durP2;ratioP2;P2;SDS_P1;SDS_P2;PMS_P1;PMS_P2;Temp;Humidity;BMP_temperature;BMP_pressure;BME280_temperature;BME280_humidity;BME280_pressure;Samples;Min_cycle;Max_cycle;Signal;HPM_P1;HPM_P2
2022/07/24 00:01:41;;;;;;;12.20;8.07;;;;;;;17.04;100.00;101727.66;5263645;28;20025;-68
2022/07/24 00:04:12;;;;;;;9.30;7.13;;;;;;;17.03;100.00;101723.28;5264422;28;20029;-68
2022/07/24 00:06:44;;;;;;;10.68;7.47;;;;;;;17.00;100.00;101727.09;5257739;28;20020;-68
2022/07/24 00:09:15;;;;;;;10.20;7.70;;;;;;;16.94;100.00;101724.94;5259315;28;20037;-68
2022/07/24 00:11:47;;;;;;;9.35;6.97;;;;;;;16.93;100.00;101720.56;5265217;28;20075;-68
2022/07/24 00:14:19;;;;;;;8.13;7.32;;;;;;;16.89;100.00;101720.97;5260803;28;20024;-68
2022/07/24 00:16:50;;;;;;;10.45;7.70;;;;;;;16.98;100.00;101718.28;5262019;28;20378;-68
2022/07/24 00:19:21;;;;;;;9.80;7.72;;;;;;;16.87;100.00;101704.91;5248912;28;20039;-68
2022/07/24 00:21:53;;;;;;;9.35;7.22;;;;;;;16.95;100.00;101706.91;5255867;28;20471;-68
2022/07/24 00:24:24;;;;;;;8.57;7.30;;;;;;;16.84;100.00;101707.91;5255624;28;20029;-68
2022/07/24 00:26:55;;;;;;;9.52;7.25;;;;;;;16.96;99.21;101698.69;5252938;28;20472;-67
2022/07/24 00:29:27;;;;;;;8.55;7.15;;;;;;;16.89;96.95;101702.09;5269981;28;20597;-68
2022/07/24 00:31:58;;;;;;;10.65;7.68;;;;;;;16.89;98.71;101704.78;5261142;28;20032;-68
2022/07/24 00:34:30;;;;;;;8.63;7.25;;;;;;;16.87;95.48;101702.22;5261879;28;20020;-68
2022/07/24 00:37:01;;;;;;;9.25;7.70;;;;;;;16.84;96.09;101703.34;5264665;28;20139;-68
2022/07/24 00:39:33;;;;;;;8.38;7.07;;;;;;;16.91;99.03;101714.44;5271391;28;20124;-68
2022/07/24 00:42:04;;;;;;;10.38;7.50;;;;;;;16.86;94.76;101714.00;5277853;28;20028;-68
2022/07/24 00:44:36;;;;;;;9.70;7.40;;;;;;;16.83;96.32;101709.72;5275253;28;20031;-68
2022/07/24 00:47:07;;;;;;;9.30;7.70;;;;;;;16.90;100.00;101712.75;5277675;28;20318;-68
2022/07/24 00:49:38;;;;;;;8.90;6.85;;;;;;;16.87;98.88;101704.91;5279341;28;20025;-68
2022/07/24 00:52:10;;;;;;;9.23;7.47;;;;;;;16.93;99.62;101717.00;5257307;28;20032;-68
2022/07/24 00:54:41;;;;;;;9.27;7.20;;;;;;;16.93;99.11;101700.81;5265276;28;20052;-68
2022/07/24 00:57:12;;;;;;;9.77;7.38;;;;;;;16.88;100.00;101703.09;5265981;28;20043;-68
2022/07/24 00:59:43;;;;;;;10.73;7.35;;;;;;;16.81;96.54;101706.28;5275819;28;20024;-68
2022/07/24 01:02:15;;;;;;;9.18;7.22;;;;;;;16.78;95.84;101708.41;5259719;28;20037;-67
2022/07/24 01:04:47;;;;;;;11.07;7.68;;;;;;;16.85;95.79;101712.28;5266431;28;20044;-68
2022/07/24 01:07:18;;;;;;;10.65;8.60;;;;;;;16.87;96.49;101704.91;5257505;28;20029;-67
2022/07/24 01:09:51;;;;;;;11.32;8.38;;;;;;;16.81;96.90;101703.59;5270239;28;20035;-68
2022/07/24 01:12:23;;;;;;;11.25;8.40;;;;;;;16.85;95.97;101696.13;5276924;28;20039;-68
2022/07/24 01:14:54;;;;;;;10.48;7.82;;;;;;;16.86;96.97;101700.53;5251184;28;20450;-68
2022/07/24 01:17:30;;;;;;;10.57;7.85;;;;;;;16.93;98.12;101695.44;5261080;28;20025;-68
2022/07/24 01:20:04;;;;;;;11.93;8.13;;;;;;;16.88;95.85;101693.16;5252113;28;20029;-68
2022/07/24 01:22:36;;;;;;;12.52;8.05;;;;;;;16.81;96.05;101694.66;5257254;28;20024;-68
2022/07/24 01:25:07;;;;;;;10.02;8.05;;;;;;;16.81;96.96;101691.97;5269741;28;20032;-68
2022/07/24 01:27:39;;;;;;;8.43;7.50;;;;;;;16.86;100.00;101695.16;5254905;28;20037;-68
2022/07/24 01:30:10;;;;;;;9.00;6.90;;;;;;;16.81;96.21;101705.44;5257594;28;20083;-68
2022/07/24 01:32:42;;;;;;;10.07;7.47;;;;;;;16.83;95.68;101696.25;5259809;28;20035;-68
2022/07/24 01:35:13;;;;;;;9.50;7.38;;;;;;;16.81;99.65;101697.34;5258032;28;20035;-68
2022/07/24 01:37:44;;;;;;;12.38;7.97;;;;;;;16.75;98.66;101696.06;5258906;28;20024;-68
2022/07/24 01:40:15;;;;;;;10.32;7.50;;;;;;;16.73;97.47;101697.19;5263638;28;20037;-68
2022/07/24 01:42:47;;;;;;;11.93;7.90;;;;;;;16.62;96.71;101704.38;5258416;28;20043;-68
2022/07/24 01:45:19;;;;;;;10.60;8.77;;;;;;;16.67;97.76;101691.34;5266155;28;20847;-68
2022/07/24 01:47:50;;;;;;;11.90;8.63;;;;;;;16.65;100.00;101693.34;5257409;28;20021;-68
2022/07/24 01:50:21;;;;;;;11.57;9.15;;;;;;;16.54;98.63;101693.44;5261466;28;20075;-68
2022/07/24 01:52:53;;;;;;;13.48;9.18;;;;;;;16.52;99.17;101689.19;5263740;28;20032;-68
2022/07/24 01:55:24;;;;;;;10.60;9.05;;;;;;;16.48;98.64;101690.44;5265683;28;20398;-68
2022/07/24 01:57:56;;;;;;;10.50;9.13;;;;;;;16.41;98.13;101688.25;5265428;28;20063;-68
2022/07/24 02:00:27;;;;;;;11.35;9.52;;;;;;;16.42;99.91;101681.91;5258628;28;21499;-68
2022/07/24 02:02:58;;;;;;;12.52;9.57;;;;;;;16.46;100.00;101680.63;5257976;28;20047;-68
2022/07/24 02:05:31;;;;;;;11.82;9.52;;;;;;;16.32;100.00;101682.84;5263639;28;20025;-68
2022/07/24 02:08:02;;;;;;;12.20;9.55;;;;;;;16.27;100.00;101685.94;5263872;28;20032;-68
2022/07/24 02:10:34;;;;;;;12.02;9.68;;;;;;;16.26;100.00;101684.22;5261202;28;20040;-68
2022/07/24 02:13:06;;;;;;;10.90;9.55;;;;;;;16.23;100.00;101685.34;5264495;28;20033;-68
2022/07/24 02:15:37;;;;;;;11.02;9.75;;;;;;;16.18;100.00;101679.50;5263975;28;20032;-66
2022/07/24 02:18:09;;;;;;;12.55;9.85;;;;;;;16.21;100.00;101681.09;5270703;28;20430;-67
2022/07/24 02:20:40;;;;;;;12.05;10.00;;;;;;;16.14;100.00;101678.06;5270895;28;20029;-67
2022/07/24 02:23:17;;;;;;;11.77;10.18;;;;;;;16.11;100.00;101681.03;5266913;28;20021;-67
2022/07/24 02:25:49;;;;;;;12.60;9.70;;;;;;;16.06;100.00;101683.28;5263980;28;20035;-68
2022/07/24 02:28:20;;;;;;;11.85;9.80;;;;;;;16.07;100.00;101677.75;5260661;28;20052;-68
2022/07/24 02:30:52;;;;;;;12.65;9.90;;;;;;;16.03;100.00;101675.44;5254372;28;20029;-68
2022/07/24 02:33:23;;;;;;;16.10;10.35;;;;;;;15.98;100.00;101683.94;5260728;28;20032;-68
2022/07/24 02:35:54;;;;;;;11.77;10.05;;;;;;;15.98;100.00;101683.09;5263971;28;20024;-68
2022/07/24 02:38:25;;;;;;;11.52;10.18;;;;;;;15.95;100.00;101681.50;5257773;28;20044;-68
2022/07/24 02:40:57;;;;;;;12.75;10.10;;;;;;;15.97;100.00;101682.22;5257708;28;20120;-68
2022/07/24 02:43:28;;;;;;;12.88;10.43;;;;;;;15.90;100.00;101685.56;5260848;28;20044;-68
2022/07/24 02:45:59;;;;;;;11.45;9.68;;;;;;;15.90;100.00;101685.56;5258376;28;20032;-68
2022/07/24 02:48:31;;;;;;;11.80;10.52;;;;;;;15.87;100.00;101697.47;5267017;28;20059;-68
2022/07/24 02:51:02;;;;;;;12.52;10.60;;;;;;;15.80;100.00;101704.34;5263797;28;20031;-68
2022/07/24 02:53:34;;;;;;;12.13;10.23;;;;;;;15.75;100.00;101695.81;5259843;28;20032;-68
2022/07/24 02:56:05;;;;;;;12.55;10.90;;;;;;;15.72;100.00;101690.66;5265092;28;20053;-68
2022/07/24 02:58:37;;;;;;;13.25;11.13;;;;;;;15.75;100.00;101701.22;5261458;28;20041;-68
2022/07/24 03:01:08;;;;;;;14.77;11.18;;;;;;;15.71;100.00;101687.13;5264893;28;20033;-68
2022/07/24 03:03:39;;;;;;;14.27;11.63;;;;;;;15.72;100.00;101688.81;5259788;28;20525;-68
2022/07/24 03:06:10;;;;;;;11.98;10.63;;;;;;;15.63;100.00;101689.63;5262163;28;20502;-68
2022/07/24 03:08:42;;;;;;;13.20;11.75;;;;;;;15.64;100.00;101683.25;5259295;28;20024;-68
2022/07/24 03:11:13;;;;;;;14.23;12.35;;;;;;;15.69;100.00;101679.19;5262059;28;20028;-68
2022/07/24 03:13:44;;;;;;;13.80;12.25;;;;;;;15.62;100.00;101677.13;5261342;28;20210;-68
2022/07/24 03:16:16;;;;;;;14.48;12.73;;;;;;;15.62;100.00;101677.97;5261675;28;20107;-68
2022/07/24 03:18:50;;;;;;;17.27;13.25;;;;;;;15.58;100.00;101681.91;5260480;28;20028;-68
2022/07/24 03:21:21;;;;;;;14.70;13.05;;;;;;;15.53;100.00;101684.13;5263508;28;20094;-68
2022/07/24 03:23:52;;;;;;;18.48;13.45;;;;;;;15.60;100.00;101681.78;5254806;28;20120;-68
2022/07/24 03:26:24;;;;;;;17.38;13.68;;;;;;;15.54;100.00;101676.94;5257905;28;20032;-68
2022/07/24 03:28:55;;;;;;;16.50;13.68;;;;;;;15.47;100.00;101684.66;5253228;28;20087;-68
2022/07/24 03:31:26;;;;;;;15.50;13.68;;;;;;;15.46;100.00;101677.59;5256083;28;20027;-68
2022/07/24 03:33:58;;;;;;;16.55;13.98;;;;;;;15.42;100.00;101682.38;5249330;28;20024;-68
2022/07/24 03:36:29;;;;;;;16.70;15.00;;;;;;;15.38;100.00;101686.28;5257260;28;20089;-68
2022/07/24 03:39:00;;;;;;;16.50;14.40;;;;;;;15.39;100.00;101681.75;5255498;28;20025;-68
2022/07/24 03:41:32;;;;;;;19.45;15.35;;;;;;;15.43;100.00;101684.06;5260100;28;20728;-68
2022/07/24 03:44:03;;;;;;;17.30;15.30;;;;;;;15.31;100.00;101689.63;5263815;28;20109;-68
2022/07/24 03:46:35;;;;;;;17.05;15.32;;;;;;;15.29;100.00;101689.75;5258410;28;20036;-68
2022/07/24 03:49:06;;;;;;;17.17;15.38;;;;;;;15.25;100.00;101672.16;5264861;28;20520;-68
2022/07/24 03:51:37;;;;;;;20.02;16.77;;;;;;;15.28;100.00;101663.81;5255099;28;20028;-68
2022/07/24 03:54:09;;;;;;;19.83;17.70;;;;;;;15.26;100.00;101661.28;5255691;28;20097;-68
2022/07/24 03:56:40;;;;;;;19.85;17.38;;;;;;;15.29;100.00;101666.41;5258495;28;20458;-68
2022/07/24 03:59:11;;;;;;;21.98;17.75;;;;;;;15.26;100.00;101674.72;5254860;28;20041;-68
2022/07/24 04:01:42;;;;;;;22.45;19.17;;;;;;;15.22;100.00;101672.41;5255739;28;20029;-68
2022/07/24 04:04:14;;;;;;;20.55;18.38;;;;;;;15.24;100.00;101667.75;5250451;28;20523;-68
2022/07/24 04:06:45;;;;;;;21.77;19.25;;;;;;;15.20;100.00;101674.38;5251226;28;20066;-68
2022/07/24 04:09:16;;;;;;;24.02;20.05;;;;;;;15.27;100.00;101678.25;5259788;28;20023;-68
2022/07/24 04:11:48;;;;;;;22.60;20.15;;;;;;;15.26;100.00;101661.28;5256303;28;20056;-68
2022/07/24 04:14:19;;;;;;;24.48;21.08;;;;;;;15.29;100.00;101671.78;5261104;28;20028;-68
2022/07/24 04:16:50;;;;;;;25.08;21.65;;;;;;;15.21;100.00;101668.03;5257412;28;20437;-68
2022/07/24 04:19:22;;;;;;;28.13;22.35;;;;;;;15.32;100.00;101667.13;5249150;28;20031;-68
2022/07/24 04:21:53;;;;;;;24.90;21.65;;;;;;;15.34;100.00;101660.66;5251853;28;20482;-68
2022/07/24 04:24:24;;;;;;;29.42;23.63;;;;;;;15.27;100.00;101667.50;5251861;28;20029;-68
2022/07/24 04:26:55;;;;;;;29.48;24.08;;;;;;;15.34;100.00;101673.22;5250425;28;20048;-68
2022/07/24 04:29:27;;;;;;;27.33;23.95;;;;;;;15.35;100.00;101678.47;5252850;28;20111;-68
2022/07/24 04:31:58;;;;;;;27.20;24.13;;;;;;;15.33;100.00;101683.13;5252208;28;20040;-68
2022/07/24 04:34:30;;;;;;;29.35;25.85;;;;;;;15.36;100.00;101685.56;5255693;28;20707;-68
2022/07/24 04:37:01;;;;;;;32.00;26.23;;;;;;;15.38;100.00;101675.53;5254897;28;20055;-68
2022/07/24 04:39:32;;;;;;;31.90;26.88;;;;;;;15.37;100.00;101679.19;5254878;28;20029;-68
2022/07/24 04:42:04;;;;;;;33.10;27.85;;;;;;;15.46;100.00;101689.19;5255251;28;20075;-68
2022/07/24 04:44:35;;;;;;;34.90;28.23;;;;;;;15.44;100.00;101685.78;5259711;28;20036;-68
2022/07/24 04:47:06;;;;;;;34.35;28.10;;;;;;;15.44;100.00;101684.94;5259102;28;20027;-68
2022/07/24 04:49:37;;;;;;;34.60;28.17;;;;;;;15.49;100.00;101683.56;5259405;28;20032;-68
2022/07/24 04:52:09;;;;;;;34.92;28.63;;;;;;;15.63;100.00;101685.09;5264517;28;20028;-68
2022/07/24 04:54:40;;;;;;;34.97;29.40;;;;;;;15.54;100.00;101683.16;5261257;28;20036;-68
2022/07/24 04:57:11;;;;;;;40.50;32.35;;;;;;;15.55;100.00;101689.38;5260978;28;20128;-68
2022/07/24 04:59:42;;;;;;;44.60;31.67;;;;;;;15.57;100.00;101680.22;5262381;28;20024;-68
2022/07/24 05:02:14;;;;;;;38.15;32.47;;;;;;;15.63;100.00;101681.56;5273758;28;20035;-68
2022/07/24 05:04:45;;;;;;;38.45;31.38;;;;;;;15.68;100.00;101676.59;5263285;28;20028;-68
2022/07/24 05:07:16;;;;;;;41.40;32.83;;;;;;;15.69;100.00;101679.19;5260993;28;20056;-68
2022/07/24 05:09:48;;;;;;;39.25;33.25;;;;;;;15.73;100.00;101679.81;5263826;28;20028;-68
2022/07/24 05:12:19;;;;;;;40.20;31.20;;;;;;;15.77;100.00;101675.88;5254163;28;20143;-68
2022/07/24 05:14:50;;;;;;;41.00;32.80;;;;;;;15.79;100.00;101673.06;5271868;28;20032;-68
2022/07/24 05:17:22;;;;;;;39.30;31.85;;;;;;;15.82;100.00;101679.03;5262634;28;21354;-68
2022/07/24 05:19:53;;;;;;;38.45;30.90;;;;;;;15.94;100.00;101682.50;5260446;28;20758;-68
2022/07/24 05:22:24;;;;;;;40.22;31.25;;;;;;;15.93;100.00;101678.09;5262769;28;20032;-68
2022/07/24 05:24:55;;;;;;;42.90;33.38;;;;;;;15.98;100.00;101688.47;5265160;28;20206;-68
2022/07/24 05:27:27;;;;;;;38.33;31.88;;;;;;;16.00;100.00;101691.88;5258099;28;20033;-68
2022/07/24 05:29:58;;;;;;;41.47;31.85;;;;;;;16.08;100.00;101689.38;5263640;28;20466;-68
2022/07/24 05:32:29;;;;;;;39.13;31.65;;;;;;;16.13;100.00;101692.53;5262405;28;20120;-68
2022/07/24 05:35:01;;;;;;;40.28;31.73;;;;;;;16.15;100.00;101687.88;5269769;28;20040;-67
2022/07/24 05:37:32;;;;;;;38.30;30.85;;;;;;;16.18;100.00;101706.44;5266917;28;20695;-68
2022/07/24 05:40:04;;;;;;;39.22;31.45;;;;;;;16.20;100.00;101699.09;5269781;28;20487;-68
2022/07/24 05:42:35;;;;;;;37.72;30.45;;;;;;;16.27;100.00;101711.03;5262839;28;20047;-68
2022/07/24 05:45:07;;;;;;;37.10;30.58;;;;;;;16.29;100.00;101701.97;5261810;28;20033;-68
2022/07/24 05:47:39;;;;;;;40.70;31.50;;;;;;;16.36;100.00;101697.75;5262103;28;20040;-68
2022/07/24 05:50:13;;;;;;;37.58;30.40;;;;;;;16.37;100.00;101692.22;5265958;28;20036;-68
2022/07/24 05:52:44;;;;;;;38.25;28.67;;;;;;;16.43;100.00;101698.91;5260747;28;20037;-68
2022/07/24 05:55:16;;;;;;;36.45;28.27;;;;;;;16.46;100.00;101699.50;5267157;28;20089;-68
2022/07/24 05:57:47;;;;;;;35.10;28.92;;;;;;;16.51;100.00;101700.94;5263845;28;20689;-68
2022/07/24 06:00:18;;;;;;;37.47;28.05;;;;;;;16.56;100.00;101699.53;5257809;28;20421;-68
2022/07/24 06:02:50;;;;;;;38.50;28.00;;;;;;;16.58;100.00;101702.09;5263131;28;20379;-68
2022/07/24 06:05:21;;;;;;;34.97;27.77;;;;;;;16.65;100.00;101706.81;5265540;28;20064;-68
2022/07/24 06:07:52;;;;;;;32.35;27.08;;;;;;;16.69;100.00;101706.53;5264892;28;20534;-68
2022/07/24 06:10:23;;;;;;;31.20;25.40;;;;;;;16.79;100.00;101702.03;5265723;28;20479;-68
2022/07/24 06:12:55;;;;;;;32.67;26.48;;;;;;;16.76;100.00;101711.25;5266251;28;20473;-68
2022/07/24 06:15:26;;;;;;;32.42;26.27;;;;;;;16.81;100.00;101713.53;5259466;28;20032;-68
2022/07/24 06:17:57;;;;;;;32.03;25.95;;;;;;;16.86;100.00;101703.22;5262335;28;20557;-68
2022/07/24 06:20:29;;;;;;;29.48;24.75;;;;;;;16.95;100.00;101717.72;5262879;28;20395;-67
2022/07/24 06:23:00;;;;;;;32.17;26.20;;;;;;;16.99;100.00;101720.00;5256149;28;20064;-68
2022/07/24 06:25:31;;;;;;;31.75;23.52;;;;;;;16.98;100.00;101712.06;5262065;28;20381;-68
2022/07/24 06:28:03;;;;;;;29.08;23.75;;;;;;;17.10;100.00;101707.38;5268900;28;20482;-68
2022/07/24 06:30:34;;;;;;;30.60;23.73;;;;;;;17.15;100.00;101705.13;5264821;28;20032;-68
2022/07/24 06:33:05;;;;;;;28.85;23.13;;;;;;;17.25;100.00;101708.69;5262644;28;20499;-68
2022/07/24 06:35:36;;;;;;;30.52;22.92;;;;;;;17.32;100.00;101711.69;5265242;28;20486;-67
2022/07/24 06:38:09;;;;;;;29.58;21.55;;;;;;;17.39;100.00;101719.09;5261382;28;20170;-67
2022/07/24 06:40:40;;;;;;;29.17;21.92;;;;;;;17.52;100.00;101721.50;5260970;28;20509;-68
2022/07/24 06:43:11;;;;;;;27.55;20.95;;;;;;;17.59;100.00;101721.78;5263234;28;20021;-68
2022/07/24 06:45:43;;;;;;;24.60;19.00;;;;;;;17.72;100.00;101710.69;5263488;28;20036;-68
2022/07/24 06:48:14;;;;;;;24.42;18.50;;;;;;;17.76;100.00;101710.28;5271164;28;20120;-68
2022/07/24 06:50:46;;;;;;;21.80;18.63;;;;;;;17.92;99.51;101703.47;5268205;28;20120;-67
2022/07/24 06:53:17;;;;;;;21.38;18.35;;;;;;;18.05;98.83;101711.28;5268681;28;20029;-68
2022/07/24 06:55:52;;;;;;;22.58;17.65;;;;;;;18.16;99.25;101717.34;5261882;28;20024;-68
2022/07/24 06:58:24;;;;;;;22.25;18.45;;;;;;;18.27;97.46;101710.06;5267204;28;20533;-68
2022/07/24 07:00:55;;;;;;;19.48;16.13;;;;;;;18.40;95.02;101703.34;5265642;28;20104;-68
2022/07/24 07:03:26;;;;;;;20.15;15.95;;;;;;;18.52;95.05;101697.75;5256807;28;20044;-68
2022/07/24 07:05:57;;;;;;;17.50;13.98;;;;;;;18.65;93.69;101705.53;5256643;28;20115;-68
2022/07/24 07:08:29;;;;;;;20.20;14.60;;;;;;;18.82;93.64;101696.66;5263166;28;20024;-67
2022/07/24 07:11:00;;;;;;;15.82;12.55;;;;;;;18.86;89.60;101699.91;5259860;28;20032;-68
2022/07/24 07:13:31;;;;;;;14.90;11.85;;;;;;;19.10;89.80;101702.88;5259658;28;20027;-68
2022/07/24 07:16:03;;;;;;;14.73;11.48;;;;;;;19.18;91.44;101700.25;5256860;28;20028;-68
2022/07/24 07:18:36;;;;;;;13.32;9.80;;;;;;;19.33;85.23;101711.41;5259494;28;20104;-68
2022/07/24 07:21:07;;;;;;;11.23;8.85;;;;;;;19.48;82.87;101718.97;5255846;28;20085;-68
2022/07/24 07:23:38;;;;;;;10.35;8.00;;;;;;;19.51;83.56;101718.69;5254402;28;20033;-68
2022/07/24 07:26:10;;;;;;;11.18;7.35;;;;;;;19.63;80.57;101711.19;5256919;28;20493;-69
2022/07/24 07:28:41;;;;;;;9.88;6.95;;;;;;;19.75;79.02;101718.94;5257141;28;20488;-67
2022/07/24 07:31:12;;;;;;;11.15;7.55;;;;;;;19.87;80.37;101719.53;5252735;28;20033;-68
2022/07/24 07:33:43;;;;;;;7.25;5.22;;;;;;;20.07;76.37;101708.50;5261524;28;21164;-68
2022/07/24 07:36:15;;;;;;;7.95;5.88;;;;;;;20.12;78.29;101712.44;5259154;28;20402;-68
2022/07/24 07:38:46;;;;;;;7.88;5.70;;;;;;;20.30;76.73;101708.81;5263300;28;20567;-69
2022/07/24 07:41:19;;;;;;;7.22;4.72;;;;;;;20.28;73.58;101713.56;5264008;28;20029;-67
2022/07/24 07:43:50;;;;;;;5.97;4.47;;;;;;;20.44;72.47;101710.97;5258072;28;20036;-69
2022/07/24 07:46:22;;;;;;;4.47;3.50;;;;;;;20.54;71.25;101708.97;5263164;28;20819;-69
2022/07/24 07:48:54;;;;;;;4.50;3.03;;;;;;;20.67;68.58;101711.28;5251974;28;20031;-68
2022/07/24 07:51:25;;;;;;;3.85;2.63;;;;;;;20.73;65.83;101709.78;5263078;28;20024;-69
2022/07/24 07:53:56;;;;;;;3.97;2.35;;;;;;;20.79;67.98;101713.66;5288821;28;20032;-69
2022/07/24 07:56:30;;;;;;;3.92;2.25;;;;;;;21.02;65.27;101711.22;5261707;28;20024;-69
2022/07/24 07:59:01;;;;;;;4.45;2.58;;;;;;;21.02;63.89;101709.38;5258823;28;20050;-69
2022/07/24 08:01:33;;;;;;;4.80;2.78;;;;;;;21.11;64.90;101704.78;5258933;28;20028;-69
2022/07/24 08:04:04;;;;;;;3.13;2.00;;;;;;;21.32;62.42;101705.19;5257029;28;20540;-68
2022/07/24 08:06:35;;;;;;;4.63;2.35;;;;;;;21.40;63.28;101700.78;5263623;28;20028;-68
2022/07/24 08:09:07;;;;;;;3.65;2.65;;;;;;;21.43;60.35;101695.84;5267607;28;20024;-69
2022/07/24 08:11:38;;;;;;;3.70;2.47;;;;;;;21.55;61.64;101696.41;5266956;28;20073;-69
2022/07/24 08:14:09;;;;;;;4.35;2.50;;;;;;;21.47;63.99;101699.97;5271518;28;20110;-69
2022/07/24 08:16:41;;;;;;;3.97;2.50;;;;;;;21.59;61.16;101705.91;5266303;28;20024;-69
2022/07/24 08:19:12;;;;;;;3.90;2.20;;;;;;;21.77;59.99;101702.19;5270577;28;20119;-69
2022/07/24 08:21:45;;;;;;;4.07;2.50;;;;;;;21.81;60.57;101692.69;5263259;28;20028;-69
2022/07/24 08:24:20;;;;;;;4.65;2.20;;;;;;;21.94;61.60;101701.16;5266494;28;20077;-69
2022/07/24 08:26:51;;;;;;;3.70;2.13;;;;;;;22.07;61.27;101703.34;5263768;28;20024;-69
2022/07/24 08:29:23;;;;;;;4.55;2.83;;;;;;;22.16;60.40;101706.91;5272283;28;20430;-69
2022/07/24 08:31:54;;;;;;;4.65;2.55;;;;;;;22.27;59.83;101709.28;5266668;28;20104;-69
2022/07/24 08:34:25;;;;;;;4.25;2.45;;;;;;;22.38;60.57;101711.66;5275478;28;20082;-68
2022/07/24 08:36:57;;;;;;;3.67;2.30;;;;;;;22.46;60.31;101708.91;5273159;28;20115;-69
2022/07/24 08:39:28;;;;;;;4.43;2.70;;;;;;;22.49;58.66;101704.97;5274492;28;20342;-69
2022/07/24 08:41:59;;;;;;;4.05;2.50;;;;;;;22.59;59.69;101713.78;5261422;28;20029;-69
2022/07/24 08:44:32;;;;;;;3.80;2.55;;;;;;;22.65;61.16;101704.09;5259392;28;20115;-69
2022/07/24 08:47:03;;;;;;;3.90;2.75;;;;;;;22.85;60.19;101707.22;5259470;28;20033;-68
2022/07/24 08:49:36;;;;;;;3.30;2.30;;;;;;;22.98;59.52;101698.50;5273181;28;20029;-68
2022/07/24 08:52:09;;;;;;;7.53;3.05;;;;;;;22.92;59.07;101693.75;5264800;28;20039;-69
2022/07/24 08:54:40;;;;;;;3.67;2.70;;;;;;;22.99;60.19;101694.72;5267682;28;20032;-68
2022/07/24 08:57:12;;;;;;;3.60;2.50;;;;;;;23.21;61.11;101695.81;5269985;28;20048;-68
2022/07/24 08:59:43;;;;;;;4.88;2.80;;;;;;;23.25;60.75;101694.44;5270288;28;20478;-69
2022/07/24 09:02:15;;;;;;;3.80;2.75;;;;;;;23.34;58.98;101701.53;5273678;28;20040;-68
2022/07/24 09:04:48;;;;;;;5.20;2.75;;;;;;;23.45;59.77;101700.25;5267680;28;20031;-68
2022/07/24 09:07:24;;;;;;;4.63;3.10;;;;;;;23.45;60.24;101695.66;5270903;28;20505;-69
2022/07/24 09:10:01;;;;;;;4.65;3.00;;;;;;;23.64;61.04;101701.63;5267940;28;20279;-68
2022/07/24 09:12:35;;;;;;;4.93;3.08;;;;;;;23.65;60.66;101703.34;5264105;28;20032;-69
2022/07/24 09:15:23;;;;;;;3.95;2.53;;;;;;;23.73;59.91;101691.53;5273843;28;20111;-68
2022/07/24 09:17:56;;;;;;;3.72;2.90;;;;;;;23.76;59.32;101680.22;5263310;28;20036;-69
2022/07/24 09:20:28;;;;;;;3.72;2.92;;;;;;;23.59;58.10;101683.13;5269092;28;20036;-69
2022/07/24 09:22:59;;;;;;;4.35;2.90;;;;;;;23.69;59.29;101682.88;5263361;28;20028;-69
2022/07/24 09:25:33;;;;;;;3.72;2.67;;;;;;;23.84;59.89;101678.31;5258872;28;20039;-69
2022/07/24 09:28:04;;;;;;;3.70;2.95;;;;;;;23.78;58.74;101664.53;5263501;28;20032;-68
2022/07/24 09:30:42;;;;;;;4.70;2.60;;;;;;;23.90;58.54;101668.56;5273194;28;20064;-68
2022/07/24 09:33:13;;;;;;;3.38;2.60;;;;;;;24.00;59.38;101662.84;5271013;28;20503;-69
2022/07/24 09:35:50;;;;;;;4.97;2.72;;;;;;;24.03;59.24;101662.47;5259205;28;20039;-69
2022/07/24 09:38:24;;;;;;;5.28;2.45;;;;;;;24.04;58.47;101665.00;5269281;28;20024;-69
2022/07/24 09:40:56;;;;;;;3.88;2.42;;;;;;;24.07;56.69;101661.06;5276077;28;20024;-69
2022/07/24 09:43:32;;;;;;;3.28;2.40;;;;;;;24.20;57.82;101666.72;5271487;28;20033;-68
2022/07/24 09:46:08;;;;;;;4.20;2.30;;;;;;;24.38;57.31;101663.59;5271295;28;20588;-69
2022/07/24 09:48:51;;;;;;;3.65;2.25;;;;;;;24.49;57.71;101655.97;5272970;28;20032;-69
2022/07/24 09:51:23;;;;;;;5.22;2.65;;;;;;;24.55;57.51;101652.53;5270396;28;20039;-69
2022/07/24 09:53:57;;;;;;;3.85;2.40;;;;;;;24.57;56.73;101647.72;5274706;28;20711;-69
2022/07/24 09:56:29;;;;;;;3.53;2.28;;;;;;;24.65;56.48;101651.19;5270568;28;20070;-69
2022/07/24 09:59:02;;;;;;;4.13;2.38;;;;;;;24.90;57.99;101648.13;5273531;28;20037;-69
2022/07/24 10:01:35;;;;;;;4.05;2.60;;;;;;;24.93;57.94;101646.88;5261343;28;20480;-68
2022/07/24 10:04:09;;;;;;;3.85;2.17;;;;;;;24.91;56.57;101655.28;5263651;28;20089;-68
2022/07/24 10:06:45;;;;;;;3.25;2.35;;;;;;;24.95;54.78;101650.25;5265963;28;20036;-69
2022/07/24 10:09:24;;;;;;;3.28;2.28;;;;;;;24.87;54.76;101653.94;5261980;28;20024;-69
2022/07/24 10:11:57;;;;;;;4.25;2.42;;;;;;;24.81;53.96;101636.50;5271799;28;20128;-69
2022/07/24 10:14:29;;;;;;;3.25;2.17;;;;;;;24.98;54.99;101641.69;5260582;28;20071;-69
2022/07/24 10:17:05;;;;;;;3.38;2.30;;;;;;;25.03;54.03;101637.34;5265668;28;20040;-69
2022/07/24 10:19:45;;;;;;;4.32;2.35;;;;;;;25.26;55.48;101635.50;5266248;28;20046;-69
2022/07/24 10:22:21;;;;;;;5.07;2.38;;;;;;;25.09;55.29;101630.25;5264253;28;20033;-69
2022/07/24 10:24:58;;;;;;;3.63;2.42;;;;;;;25.18;54.85;101628.25;5263852;28;20467;-69
2022/07/24 10:27:31;;;;;;;4.15;2.45;;;;;;;25.37;53.00;101626.75;5263170;28;20039;-69
2022/07/24 10:30:08;;;;;;;3.28;2.15;;;;;;;25.49;53.51;101632.56;5260325;28;20029;-69
2022/07/24 10:32:40;;;;;;;4.07;2.40;;;;;;;25.76;53.63;101617.22;5266127;28;20036;-69
2022/07/24 10:35:21;;;;;;;3.22;2.00;;;;;;;25.80;53.18;101621.25;5260417;28;20033;-69
2022/07/24 10:38:15;;;;;;;3.65;2.38;;;;;;;25.83;54.30;101613.50;5266431;28;20025;-69
2022/07/24 10:40:51;;;;;;;3.78;2.17;;;;;;;26.00;51.75;101615.91;5262701;28;20039;-68
2022/07/24 10:43:23;;;;;;;3.60;2.30;;;;;;;25.77;51.01;101617.03;5255409;28;20032;-69
2022/07/24 10:45:54;;;;;;;4.30;2.40;;;;;;;25.96;50.56;101606.44;5262165;28;20400;-69
2022/07/24 10:48:28;;;;;;;3.23;2.30;;;;;;;25.95;51.18;101616.53;5265217;28;20071;-69
2022/07/24 10:51:13;;;;;;;4.22;2.60;;;;;;;26.06;51.16;101614.28;5261851;28;20334;-69
2022/07/24 10:53:48;;;;;;;4.15;2.30;;;;;;;26.03;48.60;101610.06;5269796;28;20442;-68
2022/07/24 10:56:38;;;;;;;3.08;2.00;;;;;;;26.00;48.76;101608.59;5259171;28;20027;-68
2022/07/24 10:59:11;;;;;;;4.18;2.45;;;;;;;26.01;48.24;101596.59;5256228;28;20029;-69
2022/07/24 11:01:49;;;;;;;3.75;2.47;;;;;;;26.19;49.10;101600.66;5258682;28;20032;-68
2022/07/24 11:04:22;;;;;;;3.13;2.30;;;;;;;26.26;50.98;101593.34;5262284;28;20037;-69
2022/07/24 11:07:09;;;;;;;5.00;2.53;;;;;;;26.30;50.02;101593.78;5264527;28;20028;-69
2022/07/24 11:09:56;;;;;;;3.63;2.17;;;;;;;26.48;49.56;101590.47;5258743;28;20314;-70
2022/07/24 11:12:29;;;;;;;2.70;1.95;;;;;;;26.55;49.27;101602.31;5264503;28;20112;-70
2022/07/24 11:17:52;;;;;;;4.22;2.00;;;;;;;26.62;48.58;101597.75;5262833;28;20036;-67
2022/07/24 11:20:35;;;;;;;4.20;2.33;;;;;;;26.58;51.33;101602.75;5267933;28;20028;-68
2022/07/24 11:23:20;;;;;;;3.47;2.50;;;;;;;26.71;50.52;101599.25;5265589;28;20418;-67
2022/07/24 11:26:30;;;;;;;4.60;2.53;;;;;;;26.56;49.57;101590.28;5259144;28;20111;-68
2022/07/24 11:29:18;;;;;;;4.20;2.35;;;;;;;26.84;49.73;101592.94;5265612;28;20021;-66
2022/07/24 11:31:54;;;;;;;3.95;2.30;;;;;;;26.89;48.68;101589.59;5270836;28;20043;-67
2022/07/24 11:34:28;;;;;;;5.25;2.40;;;;;;;26.98;49.44;101586.47;5261083;28;20585;-67
2022/07/24 11:37:01;;;;;;;4.88;2.05;;;;;;;27.12;48.73;101586.47;5272095;28;20023;-68
2022/07/24 11:39:35;;;;;;;3.50;2.37;;;;;;;27.18;48.49;101586.47;5266147;28;20032;-67
2022/07/24 11:42:12;;;;;;;4.43;2.42;;;;;;;27.45;47.45;101578.28;5276240;28;20632;-67